createdAt,value
2018-04-25T00:01:08.679Z,12.50
2018-04-25T00:03:37.313Z,15.52
2018-04-25T00:06:05.962Z,13.60
2018-04-25T00:08:34.595Z,13.53
2018-04-25T00:11:03.248Z,13.67
2018-04-25T00:13:31.863Z,12.43
2018-04-25T00:16:00.620Z,12.93
2018-04-25T00:18:30.000Z,14.20
2018-04-25T00:20:58.652Z,12.73
2018-04-25T00:23:27.270Z,12.57
2018-04-25T00:25:55.911Z,12.37
2018-04-25T00:28:24.541Z,12.33
2018-04-25T00:30:53.186Z,11.87
2018-04-25T00:33:22.109Z,11.90
2018-04-25T00:35:50.886Z,14.55
2018-04-25T00:38:19.507Z,11.73
2018-04-25T00:40:48.687Z,11.30
2018-04-25T00:43:23.303Z,11.03
2018-04-25T00:45:46.947Z,11.33
2018-04-25T00:48:15.523Z,15.07
2018-04-25T00:50:44.127Z,11.63
2018-04-25T00:53:14.813Z,11.87
2018-04-25T00:55:43.421Z,12.03
2018-04-25T00:58:14.613Z,12.03
2018-04-25T01:00:46.979Z,12.47
2018-04-25T01:03:15.660Z,12.97
2018-04-25T01:05:48.336Z,13.87
2018-04-25T01:08:19.373Z,13.90
2018-04-25T01:10:51.562Z,13.43
2018-04-25T01:13:22.128Z,13.67
2018-04-25T01:15:53.332Z,14.73
2018-04-25T01:18:21.963Z,13.93
2018-04-25T01:20:53.021Z,14.00
2018-04-25T01:23:24.345Z,13.53
2018-04-25T01:26:07.952Z,12.80
2018-04-25T01:28:55.289Z,12.30
2018-04-25T01:31:35.787Z,13.00
2018-04-25T01:34:19.422Z,13.17
2018-04-25T01:36:53.380Z,13.17
2018-04-25T01:39:40.408Z,14.33
2018-04-25T01:42:20.276Z,12.90
2018-04-25T01:45:08.726Z,13.10
2018-04-25T01:47:37.783Z,13.00
2018-04-25T01:50:37.073Z,11.60
2018-04-25T01:53:42.946Z,14.17
2018-04-25T01:57:06.628Z,13.10
2018-04-25T02:00:30.349Z,12.27
2018-04-25T02:03:54.594Z,10.23
2018-04-25T02:06:22.955Z,9.70
2018-04-25T02:08:59.128Z,10.43
2018-04-25T02:11:33.702Z,11.00
2018-04-25T02:14:04.989Z,10.43
2018-04-25T02:16:34.527Z,9.10
2018-04-25T02:19:04.853Z,9.30
2018-04-25T02:21:35.831Z,9.63
2018-04-25T02:24:04.422Z,8.87
2018-04-25T02:26:33.060Z,8.70
2018-04-25T02:29:05.199Z,9.07
2018-04-25T02:31:33.834Z,8.43
2018-04-25T02:34:03.290Z,8.20
2018-04-25T02:36:31.917Z,9.07
2018-04-25T02:39:00.521Z,8.57
2018-04-25T02:41:31.221Z,8.97
2018-04-25T02:44:00.834Z,8.13
2018-04-25T02:46:29.455Z,8.00
2018-04-25T02:48:58.410Z,7.87
2018-04-25T02:51:27.048Z,8.00
2018-04-25T02:53:56.318Z,9.07
2018-04-25T02:56:27.059Z,8.70
2018-04-25T02:58:55.663Z,8.27
2018-04-25T03:01:24.273Z,8.10
2018-04-25T03:03:52.868Z,7.77
2018-04-25T03:06:21.494Z,7.23
2018-04-25T03:08:50.765Z,8.00
2018-04-25T03:11:19.511Z,8.27
2018-04-25T03:13:48.355Z,8.43
2018-04-25T03:16:17.346Z,8.00
2018-04-25T03:18:46.399Z,8.30
2018-04-25T03:21:15.031Z,7.93
2018-04-25T03:23:43.642Z,7.67
2018-04-25T03:26:12.304Z,7.73
2018-04-25T03:28:40.896Z,7.87
2018-04-25T03:31:09.549Z,8.30
2018-04-25T03:33:38.125Z,8.27
2018-04-25T03:36:06.787Z,7.37
2018-04-25T03:38:35.843Z,8.47
2018-04-25T03:41:04.581Z,7.73
2018-04-25T03:43:33.470Z,10.10
2018-04-25T03:46:02.297Z,8.20
2018-04-25T03:48:33.502Z,8.00
2018-04-25T03:51:04.513Z,9.87
2018-04-25T03:53:33.156Z,9.87
2018-04-25T03:56:04.371Z,9.93
2018-04-25T03:58:33.003Z,9.57
2018-04-25T04:01:01.600Z,8.80
2018-04-25T04:03:33.101Z,8.90
2018-04-25T04:06:08.904Z,8.20
2018-04-25T04:08:38.663Z,8.33
2018-04-25T04:11:08.514Z,8.57
2018-04-25T04:13:37.534Z,8.80
2018-04-25T04:16:06.968Z,8.90
2018-04-25T04:18:38.366Z,8.70
2018-04-25T04:21:09.840Z,8.83
2018-04-25T04:23:38.483Z,8.37
2018-04-25T04:26:07.094Z,8.80
2018-04-25T04:28:36.131Z,9.10
2018-04-25T04:31:04.735Z,8.50
2018-04-25T04:33:33.372Z,8.57
2018-04-25T04:36:03.351Z,11.02
2018-04-25T04:38:32.856Z,9.03
2018-04-25T04:41:01.472Z,10.90
2018-04-25T04:43:32.653Z,10.35
2018-04-25T04:46:01.266Z,9.07
2018-04-25T04:48:29.911Z,9.00
2018-04-25T04:51:00.838Z,10.75
2018-04-25T04:53:29.511Z,9.03
2018-04-25T04:56:01.102Z,8.37
2018-04-25T04:58:29.754Z,8.70
2018-04-25T05:00:58.361Z,8.57
2018-04-25T05:03:27.056Z,7.60
2018-04-25T05:05:55.651Z,7.60
2018-04-25T05:08:24.803Z,7.83
2018-04-25T05:10:53.742Z,7.30
2018-04-25T05:13:22.588Z,6.93
2018-04-25T05:15:54.102Z,7.00
2018-04-25T05:18:22.915Z,6.50
2018-04-25T05:20:53.719Z,6.70
2018-04-25T05:23:25.155Z,6.37
2018-04-25T05:25:53.887Z,7.28
2018-04-25T05:28:24.258Z,6.70
2018-04-25T05:30:55.591Z,6.10
2018-04-25T05:33:24.665Z,6.00
2018-04-25T05:35:54.262Z,6.13
2018-04-25T05:38:23.713Z,5.50
2018-04-25T05:40:52.345Z,5.33
2018-04-25T05:43:21.494Z,5.87
2018-04-25T05:45:50.575Z,5.50
2018-04-25T05:48:20.086Z,5.57
2018-04-25T05:50:48.748Z,5.37
2018-04-25T05:53:19.115Z,5.67
2018-04-25T05:55:47.972Z,5.70
2018-04-25T05:58:17.200Z,5.47
2018-04-25T06:00:46.218Z,5.47
2018-04-25T06:03:26.956Z,5.33
2018-04-25T06:05:55.828Z,5.90
2018-04-25T06:08:24.998Z,5.00
2018-04-25T06:10:53.668Z,5.47
2018-04-25T06:13:22.695Z,5.07
2018-04-25T06:15:51.894Z,6.35
2018-04-25T06:18:20.495Z,5.93
2018-04-25T06:20:49.259Z,5.23
2018-04-25T06:23:17.873Z,5.00
2018-04-25T06:25:47.499Z,5.60
2018-04-25T06:28:18.439Z,5.40
2018-04-25T06:30:47.375Z,5.23
2018-04-25T06:33:16.205Z,5.10
2018-04-25T06:36:04.632Z,5.50
2018-04-25T06:38:33.481Z,5.40
2018-04-25T06:41:02.285Z,5.50
2018-04-25T06:43:30.909Z,5.50
2018-04-25T06:46:03.349Z,5.60
2018-04-25T06:48:31.981Z,5.13
2018-04-25T06:51:00.706Z,5.53
2018-04-25T06:53:29.604Z,5.13
2018-04-25T06:55:58.429Z,5.85
2018-04-25T06:58:27.103Z,5.90
2018-04-25T07:00:55.762Z,5.70
2018-04-25T07:03:24.381Z,5.40
2018-04-25T07:05:54.848Z,5.27
2018-04-25T07:08:23.605Z,5.20
2018-04-25T07:10:52.242Z,5.40
2018-04-25T07:13:21.060Z,5.90
2018-04-25T07:15:49.906Z,5.50
2018-04-25T07:18:18.506Z,5.95
2018-04-25T07:20:47.366Z,5.45
2018-04-25T07:23:16.048Z,5.70
2018-04-25T07:25:44.863Z,5.87
2018-04-25T07:28:13.591Z,5.62
2018-04-25T07:30:42.356Z,5.80
2018-04-25T07:33:11.074Z,6.10
2018-04-25T07:35:39.780Z,6.20
2018-04-25T07:38:08.456Z,6.35
2018-04-25T07:40:37.231Z,6.22
2018-04-25T07:43:05.859Z,6.62
2018-04-25T07:45:34.776Z,6.78
2018-04-25T07:48:09.259Z,6.45
2018-04-25T07:50:38.074Z,6.80
2018-04-25T07:53:12.062Z,7.25
2018-04-25T07:55:44.679Z,6.75
2018-04-25T07:58:18.286Z,6.82
2018-04-25T08:00:46.957Z,7.00
2018-04-25T08:03:20.726Z,7.40
2018-04-25T08:05:49.616Z,7.03
2018-04-25T08:08:18.523Z,7.43
2018-04-25T08:10:47.431Z,7.62
2018-04-25T08:13:53.066Z,6.97
2018-04-25T08:16:59.214Z,8.18
2018-04-25T08:19:46.389Z,6.80
2018-04-25T08:22:15.290Z,7.12
2018-04-25T08:24:44.726Z,7.18
2018-04-25T08:27:13.822Z,7.57
2018-04-25T08:29:42.691Z,7.07
2018-04-25T08:32:11.338Z,6.82
2018-04-25T08:34:40.055Z,7.05
2018-04-25T08:37:10.209Z,7.35
2018-04-25T08:39:39.294Z,6.90
2018-04-25T08:42:08.176Z,7.43
2018-04-25T08:44:36.987Z,6.90
2018-04-25T08:47:07.648Z,7.57
2018-04-25T08:49:37.137Z,7.97
2018-04-25T08:52:07.317Z,7.18
2018-04-25T08:54:36.006Z,7.07
2018-04-25T08:57:07.406Z,8.00
2018-04-25T08:59:38.136Z,6.90
2018-04-25T09:02:09.416Z,6.15
2018-04-25T09:04:38.395Z,6.95
2018-04-25T09:07:07.547Z,7.10
2018-04-25T09:09:37.838Z,7.37
2018-04-25T09:12:06.520Z,6.70
2018-04-25T09:14:35.232Z,6.87
2018-04-25T09:17:03.906Z,6.90
2018-04-25T09:19:32.540Z,7.00
2018-04-25T09:22:01.155Z,6.90
2018-04-25T09:24:31.686Z,6.87
2018-04-25T09:27:00.266Z,6.70
2018-04-25T09:29:29.077Z,7.05
2018-04-25T09:31:57.677Z,6.40
2018-04-25T09:34:26.322Z,6.12
2018-04-25T09:36:54.915Z,6.45
2018-04-25T09:39:23.706Z,6.28
2018-04-25T09:41:52.422Z,6.28
2018-04-25T09:44:21.259Z,6.15
2018-04-25T09:46:49.899Z,6.28
2018-04-25T09:49:19.917Z,5.95
2018-04-25T09:51:48.876Z,6.32
2018-04-25T09:54:19.606Z,5.75
2018-04-25T09:56:48.459Z,6.35
2018-04-25T09:59:17.395Z,6.85
2018-04-25T10:01:46.343Z,6.20
2018-04-25T10:04:15.062Z,5.93
2018-04-25T10:06:43.769Z,5.78
2018-04-25T10:09:12.417Z,6.00
2018-04-25T10:11:41.355Z,6.07
2018-04-25T10:14:10.554Z,6.60
2018-04-25T10:16:40.048Z,5.43
2018-04-25T10:19:10.607Z,5.50
2018-04-25T10:21:39.236Z,6.00
2018-04-25T10:24:08.077Z,5.60
2018-04-25T10:26:43.981Z,5.60
2018-04-25T10:29:12.623Z,5.20
2018-04-25T10:31:41.641Z,4.82
2018-04-25T10:37:17.086Z,4.80
2018-04-25T10:39:45.736Z,4.82
2018-04-25T10:42:14.703Z,4.47
2018-04-25T10:44:43.348Z,4.70
2018-04-25T10:47:16.841Z,4.65
2018-04-25T10:49:46.681Z,5.07
2018-04-25T10:52:15.237Z,5.28
2018-04-25T10:54:44.005Z,5.68
2018-04-25T10:57:12.600Z,4.97
2018-04-25T10:59:41.249Z,5.37
2018-04-25T11:02:09.842Z,5.32
2018-04-25T11:04:38.468Z,4.78
2018-04-25T11:07:07.054Z,4.78
2018-04-25T11:09:35.687Z,4.20
2018-04-25T11:12:04.286Z,4.62
2018-04-25T11:14:32.905Z,3.40
2018-04-25T11:17:01.493Z,3.70
2018-04-25T11:19:30.316Z,4.05
2018-04-25T11:22:00.010Z,4.47
2018-04-25T11:24:28.605Z,4.90
2018-04-25T11:26:57.242Z,4.80
2018-04-25T11:29:25.907Z,4.28
2018-04-25T11:31:57.947Z,4.37
2018-04-25T11:34:26.683Z,4.53
2018-04-25T11:36:55.415Z,4.15
2018-04-25T11:39:24.230Z,3.80
2018-04-25T11:41:52.965Z,4.07
2018-04-25T11:44:24.183Z,4.68
2018-04-25T11:46:52.864Z,4.10
2018-04-25T11:49:22.890Z,4.10
2018-04-25T11:51:51.570Z,3.97
2018-04-25T11:54:20.580Z,3.92
2018-04-25T11:56:49.428Z,4.37
2018-04-25T11:59:18.029Z,4.55
2018-04-25T12:01:48.035Z,3.80
2018-04-25T12:04:16.747Z,4.22
2018-04-25T12:06:45.712Z,3.90
2018-04-25T12:09:15.056Z,3.37
2018-04-25T12:11:45.380Z,2.78
2018-04-25T12:14:16.058Z,2.87
2018-04-25T12:16:44.727Z,2.33
2018-04-25T12:19:14.346Z,2.70
2018-04-25T12:21:43.317Z,2.10
2018-04-25T12:24:12.081Z,1.50
2018-04-25T12:26:40.774Z,1.65
2018-04-25T12:29:09.687Z,0.80
2018-04-25T12:31:39.150Z,0.98
2018-04-25T12:34:10.318Z,1.30
2018-04-25T12:36:39.036Z,1.33
2018-04-25T12:39:09.677Z,1.48
2018-04-25T12:41:47.560Z,1.40
2018-04-25T12:44:16.474Z,1.35
2018-04-25T12:46:45.230Z,1.33
2018-04-25T12:49:13.804Z,1.60
2018-04-25T12:51:45.098Z,1.23
2018-04-25T12:54:17.544Z,1.12
2018-04-25T12:56:46.800Z,1.33
2018-04-25T12:59:15.901Z,1.83
2018-04-25T13:01:44.519Z,2.00
2018-04-25T13:04:13.417Z,2.78
2018-04-25T13:06:42.077Z,2.92
2018-04-25T13:09:11.342Z,4.18
2018-04-25T13:11:40.479Z,4.07
2018-04-25T13:14:09.526Z,4.40
2018-04-25T13:16:38.157Z,5.37
2018-04-25T13:19:07.091Z,5.20
2018-04-25T13:21:35.777Z,5.30
2018-04-25T13:24:04.723Z,5.60
2018-04-25T13:26:33.915Z,6.20
2018-04-25T13:29:02.586Z,5.10
2018-04-25T13:31:33.024Z,3.70
2018-04-25T13:34:01.781Z,2.67
2018-04-25T13:36:31.677Z,2.87
2018-04-25T13:39:00.305Z,2.92
2018-04-25T13:41:29.143Z,3.05
2018-04-25T13:43:58.689Z,3.15
2018-04-25T13:46:27.519Z,3.47
2018-04-25T13:48:56.218Z,2.58
2018-04-25T13:51:25.243Z,2.03
2018-04-25T13:53:54.744Z,2.20
2018-04-25T13:56:25.954Z,2.78
2018-04-25T13:58:56.642Z,3.10
2018-04-25T14:01:27.037Z,2.75
2018-04-25T14:03:55.894Z,3.05
2018-04-25T14:06:24.927Z,2.67
2018-04-25T14:08:53.551Z,2.55
2018-04-25T14:11:30.575Z,2.35
2018-04-25T14:13:59.722Z,2.45
2018-04-25T14:16:29.362Z,2.67
2018-04-25T14:18:58.537Z,3.90
2018-04-25T14:21:27.110Z,4.40
2018-04-25T14:23:55.885Z,4.87
2018-04-25T14:26:24.658Z,5.22
2018-04-25T14:28:54.507Z,4.25
2018-04-25T14:31:25.632Z,4.15
2018-04-25T14:33:54.478Z,4.05
2018-04-25T14:36:23.749Z,3.85
2018-04-25T14:38:52.636Z,3.58
2018-04-25T14:41:24.049Z,3.92
2018-04-25T14:43:53.505Z,3.50
2018-04-25T14:46:22.489Z,4.03
2018-04-25T14:48:55.712Z,3.53
2018-04-25T14:51:25.890Z,4.60
2018-04-25T14:53:54.603Z,3.60
2018-04-25T14:56:23.969Z,4.25
2018-04-25T15:01:40.825Z,4.80
2018-04-25T15:04:12.684Z,3.92
2018-04-25T15:06:41.559Z,4.65
2018-04-25T15:09:13.931Z,4.15
2018-04-25T15:11:44.447Z,3.58
2018-04-25T15:14:24.584Z,4.20
2018-04-25T15:17:07.415Z,3.80
2018-04-25T15:19:36.537Z,3.50
2018-04-25T15:22:05.756Z,3.95
2018-04-25T15:24:35.139Z,4.10
2018-04-25T15:27:07.716Z,3.75
2018-04-25T15:29:37.290Z,3.90
2018-04-25T15:32:07.979Z,3.65
2018-04-25T15:34:40.303Z,4.15
2018-04-25T15:37:10.869Z,3.60
2018-04-25T15:39:41.121Z,3.97
2018-04-25T15:42:09.920Z,3.78
2018-04-25T15:44:40.434Z,4.35
2018-04-25T15:47:12.194Z,3.67
2018-04-25T15:49:56.512Z,4.28
2018-04-25T15:52:25.174Z,4.28
2018-04-25T15:54:54.483Z,3.90
2018-04-25T15:57:24.578Z,3.35
2018-04-25T16:00:11.586Z,3.00
2018-04-25T16:02:43.039Z,3.40
2018-04-25T16:05:14.471Z,3.40
2018-04-25T16:07:43.695Z,2.90
2018-04-25T16:10:16.961Z,3.10
2018-04-25T16:12:45.640Z,2.87
2018-04-25T16:15:14.601Z,3.28
2018-04-25T16:17:43.143Z,3.65
2018-04-25T16:20:11.842Z,3.72
2018-04-25T16:22:42.648Z,3.27
2018-04-25T16:25:12.969Z,3.25
2018-04-25T16:27:42.112Z,3.23
2018-04-25T16:30:10.719Z,3.72
2018-04-25T16:32:39.342Z,3.40
2018-04-25T16:35:08.057Z,3.57
2018-04-25T16:37:38.830Z,4.00
2018-04-25T16:40:08.677Z,3.80
2018-04-25T16:42:37.402Z,3.43
2018-04-25T16:45:08.107Z,3.50
2018-04-25T16:47:40.140Z,3.47
2018-04-25T16:50:09.306Z,3.23
2018-04-25T16:52:40.566Z,2.60
2018-04-25T16:55:11.037Z,3.10
2018-04-25T16:57:39.947Z,3.17
2018-04-25T17:00:12.944Z,2.93
2018-04-25T17:02:44.227Z,2.97
2018-04-25T17:05:14.127Z,2.70
2018-04-25T17:07:58.714Z,2.90
2018-04-25T17:10:28.450Z,2.90
2018-04-25T17:12:59.429Z,3.08
2018-04-25T17:15:30.786Z,3.10
2018-04-25T17:17:59.651Z,2.90
2018-04-25T17:20:38.780Z,2.53
2018-04-25T17:23:14.633Z,2.78
2018-04-25T17:25:43.744Z,2.80
2018-04-25T17:28:12.950Z,2.50
2018-04-25T17:30:43.049Z,2.03
2018-04-25T17:33:25.558Z,2.35
2018-04-25T17:35:54.183Z,2.20
2018-04-25T17:38:23.314Z,2.12
2018-04-25T17:40:52.649Z,2.40
2018-04-25T17:43:21.734Z,2.37
2018-04-25T17:45:51.547Z,2.50
2018-04-25T17:48:20.962Z,2.63
2018-04-25T17:50:49.780Z,2.87
2018-04-25T17:53:25.054Z,2.90
2018-04-25T17:55:56.316Z,2.60
2018-04-25T17:58:25.506Z,3.50
2018-04-25T18:00:54.263Z,3.27
2018-04-25T18:03:23.799Z,2.70
2018-04-25T18:05:52.478Z,2.83
2018-04-25T18:08:23.978Z,3.10
2018-04-25T18:10:53.933Z,3.20
2018-04-25T18:13:22.782Z,3.00
2018-04-25T18:15:52.861Z,3.92
2018-04-25T18:18:22.609Z,3.50
2018-04-25T18:20:52.645Z,3.10
2018-04-25T18:23:22.509Z,3.40
2018-04-25T18:25:53.057Z,4.03
2018-04-25T18:28:23.212Z,3.23
2018-04-25T18:30:52.433Z,3.40
2018-04-25T18:33:22.224Z,3.40
2018-04-25T18:35:52.031Z,5.43
2018-04-25T18:38:21.349Z,5.17
2018-04-25T18:40:51.263Z,4.50
2018-04-25T18:46:10.759Z,4.30
2018-04-25T18:48:41.991Z,3.23
2018-04-25T18:51:12.069Z,3.70
2018-04-25T18:53:47.111Z,4.07
2018-04-25T18:56:16.236Z,3.60
2018-04-25T18:58:45.266Z,3.80
2018-04-25T19:01:14.163Z,4.40
2018-04-25T19:03:43.083Z,4.63
2018-04-25T19:06:11.988Z,4.20
2018-04-25T19:08:40.749Z,3.67
2018-04-25T19:11:10.922Z,4.47
2018-04-25T19:13:41.607Z,4.60
2018-04-25T19:16:11.084Z,4.40
2018-04-25T19:18:40.062Z,4.07
2018-04-25T19:21:09.340Z,3.83
2018-04-25T19:23:38.187Z,4.10
2018-04-25T19:26:07.070Z,4.30
2018-04-25T19:28:36.017Z,4.70
2018-04-25T19:31:05.640Z,4.43
2018-04-25T19:33:34.466Z,4.27
2018-04-25T19:36:03.492Z,4.53
2018-04-25T19:38:32.185Z,4.60
2018-04-25T19:41:02.151Z,3.97
2018-04-25T19:43:31.517Z,4.50
2018-04-25T19:46:00.477Z,4.37
2018-04-25T19:48:29.183Z,4.47
2018-04-25T19:50:58.781Z,4.17
2018-04-25T19:53:31.633Z,4.90
2018-04-25T19:56:02.212Z,4.43
2018-04-25T19:58:32.979Z,4.17
2018-04-25T20:01:01.642Z,4.20
2018-04-25T20:03:30.236Z,4.67
2018-04-25T20:05:58.902Z,3.77
2018-04-25T20:08:27.754Z,4.85
2018-04-25T20:10:56.375Z,4.53
2018-04-25T20:13:24.992Z,4.43
2018-04-25T20:15:53.673Z,4.20
2018-04-25T20:18:22.560Z,4.80
2018-04-25T20:20:51.483Z,4.20
2018-04-25T20:23:20.349Z,3.77
2018-04-25T20:25:49.133Z,4.47
2018-04-25T20:28:17.759Z,4.80
2018-04-25T20:30:46.466Z,4.30
2018-04-25T20:33:16.601Z,4.77
2018-04-25T20:35:45.762Z,4.80
2018-04-25T20:38:15.190Z,4.90
2018-04-25T20:40:46.028Z,7.30
2018-04-25T20:43:16.009Z,7.27
2018-04-25T20:45:44.781Z,7.43
2018-04-25T20:48:15.536Z,7.20
2018-04-25T20:50:45.524Z,6.33
2018-04-25T20:53:14.148Z,5.73
2018-04-25T20:58:38.186Z,4.97
2018-04-25T21:01:08.534Z,5.27
2018-04-25T21:03:37.748Z,5.40
2018-04-25T21:06:06.700Z,5.57
2018-04-25T21:08:35.728Z,5.40
2018-04-25T21:11:05.038Z,5.30
2018-04-25T21:13:35.868Z,6.57
2018-04-25T21:16:04.768Z,5.80
2018-04-25T21:18:34.726Z,5.70
2018-04-25T21:21:03.646Z,5.80
2018-04-25T21:23:33.720Z,4.87
2018-04-25T21:26:02.309Z,5.20
2018-04-25T21:28:31.244Z,5.27
2018-04-25T21:31:00.853Z,5.93
2018-04-25T21:33:32.445Z,5.53
2018-04-25T21:36:01.336Z,5.47
2018-04-25T21:38:34.309Z,5.07
2018-04-25T21:41:03.020Z,5.67
2018-04-25T21:43:32.128Z,5.47
2018-04-25T21:46:00.736Z,5.30
2018-04-25T21:48:29.383Z,5.53
2018-04-25T21:51:00.653Z,5.37
2018-04-25T21:53:30.343Z,4.93
2018-04-25T21:56:00.368Z,6.53
2018-04-25T21:58:29.668Z,5.70
2018-04-25T22:01:09.255Z,6.23
2018-04-25T22:03:38.385Z,5.97
2018-04-25T22:06:17.026Z,5.80
2018-04-25T22:08:45.673Z,5.57
2018-04-25T22:11:14.650Z,5.93
2018-04-25T22:13:45.350Z,5.97
2018-04-25T22:16:14.014Z,6.78
2018-04-25T22:18:42.676Z,5.57
2018-04-25T22:21:11.494Z,5.47
2018-04-25T22:23:41.612Z,5.43
2018-04-25T22:26:10.619Z,5.53
2018-04-25T22:31:29.666Z,6.25
2018-04-25T22:33:58.818Z,5.93
2018-04-25T22:36:30.950Z,5.60
2018-04-25T22:39:03.654Z,5.43
2018-04-25T22:41:32.256Z,6.53
2018-04-25T22:44:00.972Z,5.37
2018-04-25T22:46:31.651Z,5.90
2018-04-25T22:49:06.091Z,5.93
2018-04-25T22:51:38.971Z,5.57
2018-04-25T22:54:10.205Z,5.27
2018-04-25T22:56:39.449Z,5.70
2018-04-25T22:59:08.904Z,5.27
2018-04-25T23:01:39.235Z,5.67
2018-04-25T23:04:08.761Z,5.40
2018-04-25T23:06:41.287Z,5.30
2018-04-25T23:09:11.125Z,6.68
2018-04-25T23:11:41.753Z,5.67
2018-04-25T23:14:10.485Z,6.20
2018-04-25T23:19:30.010Z,5.30
2018-04-25T23:22:01.070Z,5.77
2018-04-25T23:24:32.024Z,5.07
2018-04-25T23:27:05.487Z,6.00
2018-04-25T23:29:36.079Z,6.03
2018-04-25T23:32:05.101Z,6.33
2018-04-25T23:34:34.748Z,6.40
2018-04-25T23:37:06.604Z,5.50
2018-04-25T23:39:39.805Z,5.20
2018-04-25T23:42:08.675Z,5.03
2018-04-25T23:44:38.145Z,5.50
2018-04-25T23:47:09.114Z,5.30
2018-04-25T23:49:38.411Z,5.20
2018-04-25T23:52:08.145Z,5.60
2018-04-25T23:54:37.257Z,5.27
2018-04-25T23:57:06.196Z,5.27
2018-04-25T23:59:35.482Z,6.20
